Time;durP1;ratioP1;P1;durP2;ratioP2;P2;SDS_P1;SDS_P2;PMS_P1;PMS_P2;Temp;Humidity;BMP_temperature;BMP_pressure;BME280_temperature;BME280_humidity;BME280_pressure;Samples;Min_cycle;Max_cycle;Signal;HPM_P1;HPM_P2
2021/07/05 00:00:06;;;;;;;1.08;0.77;;;;;;;;;;5001301;28;20100;-51
2021/07/05 00:02:35;;;;;;;4.10;0.75;;;;;;;;;;4984026;28;20046;-48
2021/07/05 00:05:02;;;;;;;1.63;1.00;;;;;;;;;;4988012;28;20042;-49
2021/07/05 00:07:29;;;;;;;1.48;1.00;;;;;;;;;;5003189;28;20568;-49
2021/07/05 00:09:56;;;;;;;0.70;0.70;;;;;;;;;;4998168;28;20530;-47
2021/07/05 00:12:23;;;;;;;1.38;0.80;;;;;;;;;;5012431;28;20113;-54
2021/07/05 00:14:50;;;;;;;1.40;0.82;;;;;;;;;;4999742;28;20129;-48
2021/07/05 00:17:16;;;;;;;2.90;0.70;;;;;;;;;;5000570;28;20041;-48
2021/07/05 00:19:43;;;;;;;1.00;0.80;;;;;;;;;;4982292;28;20157;-53
2021/07/05 00:22:10;;;;;;;1.60;0.80;;;;;;;;;;4977107;28;20053;-48
2021/07/05 00:24:37;;;;;;;2.00;0.73;;;;;;;;;;4995039;28;20070;-51
2021/07/05 00:27:03;;;;;;;1.65;1.02;;;;;;;;;;5007469;28;20045;-49
2021/07/05 00:29:30;;;;;;;1.67;0.80;;;;;;;;;;4998162;28;20066;-50
2021/07/05 00:31:57;;;;;;;1.60;0.85;;;;;;;;;;5003221;28;20048;-53
2021/07/05 00:34:24;;;;;;;0.88;0.88;;;;;;;;;;5001838;28;20396;-53
2021/07/05 00:36:51;;;;;;;1.58;0.73;;;;;;;;;;5007353;28;20602;-52
2021/07/05 00:39:18;;;;;;;1.33;0.80;;;;;;;;;;5011737;28;20053;-53
2021/07/05 00:41:45;;;;;;;1.58;0.90;;;;;;;;;;5004799;28;20049;-55
2021/07/05 00:44:12;;;;;;;2.35;0.70;;;;;;;;;;5003457;28;20046;-53
2021/07/05 00:46:38;;;;;;;1.20;0.70;;;;;;;;;;5005529;28;20045;-51
2021/07/05 00:49:05;;;;;;;3.63;1.00;;;;;;;;;;5011034;28;20053;-55
2021/07/05 00:51:32;;;;;;;2.35;0.70;;;;;;;;;;4995634;28;20137;-55
2021/07/05 00:53:59;;;;;;;0.98;0.80;;;;;;;;;;4972447;28;20413;-54
2021/07/05 00:56:26;;;;;;;0.88;0.80;;;;;;;;;;4973213;28;20053;-54
2021/07/05 00:58:54;;;;;;;1.73;1.00;;;;;;;;;;4987454;28;20499;-51
2021/07/05 01:01:21;;;;;;;2.28;0.88;;;;;;;;;;5006449;28;20046;-53
2021/07/05 01:03:48;;;;;;;4.60;0.90;;;;;;;;;;4991672;28;20061;-52
2021/07/05 01:06:15;;;;;;;1.00;0.65;;;;;;;;;;4984023;28;20046;-50
2021/07/05 01:08:41;;;;;;;1.02;0.82;;;;;;;;;;5000004;28;20041;-54
2021/07/05 01:11:08;;;;;;;1.92;0.70;;;;;;;;;;4998293;28;20122;-54
2021/07/05 01:13:35;;;;;;;1.58;0.90;;;;;;;;;;4993164;28;20412;-51
2021/07/05 01:16:02;;;;;;;1.02;0.90;;;;;;;;;;4989248;28;20047;-53
2021/07/05 01:18:29;;;;;;;1.77;0.90;;;;;;;;;;5008430;28;20450;-54
2021/07/05 01:20:58;;;;;;;1.17;0.85;;;;;;;;;;5006972;28;20442;-51
2021/07/05 01:23:25;;;;;;;4.45;1.00;;;;;;;;;;4996710;28;20392;-52
2021/07/05 01:25:52;;;;;;;1.50;1.27;;;;;;;;;;4990332;28;20038;-52
2021/07/05 01:28:18;;;;;;;2.38;1.00;;;;;;;;;;4992419;28;20089;-52
2021/07/05 01:30:47;;;;;;;1.08;0.80;;;;;;;;;;4998699;28;20046;-55
2021/07/05 01:33:15;;;;;;;1.08;0.82;;;;;;;;;;4991904;28;20031;-54
2021/07/05 01:35:42;;;;;;;1.77;0.90;;;;;;;;;;4991713;28;20486;-53
2021/07/05 01:38:10;;;;;;;5.68;1.00;;;;;;;;;;4993216;28;20129;-51
2021/07/05 01:40:37;;;;;;;2.17;1.23;;;;;;;;;;4989531;28;20477;-51
2021/07/05 01:43:04;;;;;;;1.15;0.93;;;;;;;;;;4977320;28;20105;-53
2021/07/05 01:45:32;;;;;;;3.08;1.10;;;;;;;;;;5001275;28;20173;-52
2021/07/05 01:47:59;;;;;;;2.30;0.98;;;;;;;;;;4988126;28;20043;-51
2021/07/05 01:50:26;;;;;;;1.15;0.90;;;;;;;;;;4972342;28;20514;-51
2021/07/05 01:52:53;;;;;;;1.75;1.00;;;;;;;;;;4990681;28;20054;-55
2021/07/05 01:55:24;;;;;;;4.45;1.02;;;;;;;;;;5002083;28;20049;-53
2021/07/05 01:57:51;;;;;;;1.77;1.20;;;;;;;;;;5004795;28;20047;-52
2021/07/05 02:00:18;;;;;;;2.78;1.05;;;;;;;;;;4988944;28;20125;-53
2021/07/05 02:02:45;;;;;;;1.00;0.80;;;;;;;;;;4985846;28;20101;-52
2021/07/05 02:05:14;;;;;;;1.20;1.00;;;;;;;;;;5002576;28;20042;-51
2021/07/05 02:07:42;;;;;;;2.25;1.10;;;;;;;;;;4995129;28;20438;-51
2021/07/05 02:10:18;;;;;;;1.42;1.10;;;;;;;;;;4988995;28;20042;-55
2021/07/05 02:12:45;;;;;;;1.75;1.10;;;;;;;;;;4984366;28;20105;-53
2021/07/05 02:15:13;;;;;;;1.55;1.10;;;;;;;;;;4987921;28;20046;-54
2021/07/05 02:17:41;;;;;;;4.57;1.02;;;;;;;;;;5005563;28;20042;-53
2021/07/05 02:20:10;;;;;;;2.75;1.20;;;;;;;;;;4986463;28;20058;-50
2021/07/05 02:22:36;;;;;;;3.63;1.00;;;;;;;;;;4976782;28;20157;-52
2021/07/05 02:25:10;;;;;;;1.38;1.10;;;;;;;;;;5001079;28;20038;-54
2021/07/05 02:27:38;;;;;;;1.70;1.00;;;;;;;;;;5002760;28;20430;-54
2021/07/05 02:30:07;;;;;;;2.60;1.38;;;;;;;;;;5012194;28;20046;-54
2021/07/05 02:32:34;;;;;;;2.83;1.30;;;;;;;;;;4983513;28;20047;-53
2021/07/05 02:35:03;;;;;;;1.20;1.05;;;;;;;;;;5003329;28;20052;-55
2021/07/05 02:37:30;;;;;;;2.97;1.38;;;;;;;;;;5010504;28;20049;-54
2021/07/05 02:39:57;;;;;;;1.55;1.00;;;;;;;;;;5004153;28;20045;-51
2021/07/05 02:42:23;;;;;;;2.97;1.10;;;;;;;;;;4989006;28;20156;-49
2021/07/05 02:44:50;;;;;;;2.88;1.10;;;;;;;;;;4996778;28;20030;-48
2021/07/05 02:47:17;;;;;;;1.75;1.10;;;;;;;;;;5010959;28;20470;-50
2021/07/05 02:49:44;;;;;;;2.72;1.13;;;;;;;;;;4996681;28;20047;-51
2021/07/05 02:52:10;;;;;;;2.17;1.33;;;;;;;;;;4995828;28;20042;-51
2021/07/05 02:54:37;;;;;;;1.23;1.10;;;;;;;;;;5000458;28;20042;-51
2021/07/05 02:57:05;;;;;;;2.20;1.30;;;;;;;;;;4993544;28;20042;-48
2021/07/05 02:59:32;;;;;;;4.43;1.15;;;;;;;;;;4989200;28;20042;-49
2021/07/05 03:01:59;;;;;;;2.75;1.05;;;;;;;;;;5008520;28;20043;-49
2021/07/05 03:04:26;;;;;;;2.38;1.38;;;;;;;;;;4989807;28;20049;-47
2021/07/05 03:06:52;;;;;;;4.22;1.20;;;;;;;;;;4987747;28;20480;-50
2021/07/05 03:09:19;;;;;;;2.28;1.20;;;;;;;;;;5001241;28;20129;-54
2021/07/05 03:11:46;;;;;;;1.95;1.08;;;;;;;;;;4979345;28;20046;-50
2021/07/05 03:14:12;;;;;;;1.83;1.20;;;;;;;;;;4989117;28;20141;-55
2021/07/05 03:16:39;;;;;;;4.35;1.50;;;;;;;;;;5001522;28;20053;-53
2021/07/05 03:19:06;;;;;;;1.58;1.17;;;;;;;;;;4980462;28;20081;-53
2021/07/05 03:21:33;;;;;;;2.30;1.25;;;;;;;;;;4982628;28;20403;-51
2021/07/05 03:23:59;;;;;;;4.30;1.38;;;;;;;;;;4998826;28;20502;-54
2021/07/05 03:26:26;;;;;;;3.17;1.20;;;;;;;;;;4996569;28;20042;-52
2021/07/05 03:28:53;;;;;;;2.45;1.10;;;;;;;;;;5000279;28;20068;-52
2021/07/05 03:31:20;;;;;;;1.52;1.10;;;;;;;;;;5009806;28;20503;-51
2021/07/05 03:33:48;;;;;;;1.75;1.20;;;;;;;;;;4978268;28;20074;-55
2021/07/05 03:36:15;;;;;;;3.38;1.30;;;;;;;;;;5010025;28;20076;-54
2021/07/05 03:38:41;;;;;;;2.25;1.25;;;;;;;;;;5011468;28;20074;-51
2021/07/05 03:41:08;;;;;;;1.77;1.30;;;;;;;;;;5006758;28;20398;-53
2021/07/05 03:43:35;;;;;;;1.70;1.20;;;;;;;;;;5010759;28;20084;-54
2021/07/05 03:46:01;;;;;;;2.40;1.23;;;;;;;;;;5003864;28;20057;-55
2021/07/05 03:48:28;;;;;;;2.63;1.40;;;;;;;;;;5013303;28;20053;-53
2021/07/05 03:50:55;;;;;;;1.77;1.30;;;;;;;;;;5003272;28;20137;-49
2021/07/05 03:53:22;;;;;;;1.95;1.10;;;;;;;;;;4984075;28;20514;-48
2021/07/05 03:55:48;;;;;;;4.55;1.60;;;;;;;;;;4992419;28;20077;-51
2021/07/05 03:58:16;;;;;;;2.03;1.38;;;;;;;;;;5011607;28;20068;-49
2021/07/05 04:00:43;;;;;;;6.70;2.45;;;;;;;;;;5001751;28;20048;-48
2021/07/05 04:03:10;;;;;;;3.13;1.30;;;;;;;;;;4979359;28;20045;-51
2021/07/05 04:05:37;;;;;;;3.08;1.40;;;;;;;;;;4993078;28;20101;-53
2021/07/05 04:08:05;;;;;;;2.03;1.20;;;;;;;;;;4993102;28;20043;-48
2021/07/05 04:10:32;;;;;;;3.10;1.58;;;;;;;;;;4984900;28;20047;-48
2021/07/05 04:12:59;;;;;;;2.90;1.35;;;;;;;;;;4999028;28;20046;-48
2021/07/05 04:15:26;;;;;;;1.88;1.25;;;;;;;;;;4992595;28;20042;-48
2021/07/05 04:17:53;;;;;;;1.75;1.10;;;;;;;;;;4989948;28;20092;-48
2021/07/05 04:20:22;;;;;;;1.73;1.30;;;;;;;;;;5007398;28;20137;-52
2021/07/05 04:22:49;;;;;;;1.73;1.08;;;;;;;;;;4992246;28;20404;-48
2021/07/05 04:25:16;;;;;;;1.70;1.25;;;;;;;;;;5003779;28;20427;-51
2021/07/05 04:27:43;;;;;;;2.35;1.30;;;;;;;;;;4998345;28;20039;-52
2021/07/05 04:30:11;;;;;;;1.70;1.20;;;;;;;;;;5002756;28;20050;-49
2021/07/05 04:32:38;;;;;;;2.17;1.40;;;;;;;;;;4984559;28;20046;-50
2021/07/05 04:35:09;;;;;;;1.88;1.27;;;;;;;;;;5006736;28;20046;-48
2021/07/05 04:37:37;;;;;;;2.72;1.00;;;;;;;;;;5004783;28;20157;-49
2021/07/05 04:40:06;;;;;;;1.88;1.20;;;;;;;;;;5012463;28;20461;-51
2021/07/05 04:42:33;;;;;;;1.15;1.05;;;;;;;;;;4987007;28;20150;-50
2021/07/05 04:45:00;;;;;;;1.58;1.25;;;;;;;;;;4998990;28;20053;-52
2021/07/05 04:47:27;;;;;;;2.30;1.27;;;;;;;;;;4996429;28;20395;-49
2021/07/05 04:49:53;;;;;;;1.75;1.23;;;;;;;;;;5005395;28;20161;-50
2021/07/05 04:52:20;;;;;;;2.22;1.17;;;;;;;;;;5000244;28;20037;-51
2021/07/05 04:54:47;;;;;;;2.45;1.30;;;;;;;;;;4973363;28;20134;-49
2021/07/05 04:57:14;;;;;;;1.95;1.00;;;;;;;;;;4983108;28;20056;-53
2021/07/05 04:59:40;;;;;;;2.35;1.27;;;;;;;;;;5000708;28;20084;-49
2021/07/05 05:02:07;;;;;;;2.45;1.00;;;;;;;;;;5007348;28;20459;-51
2021/07/05 05:04:34;;;;;;;2.10;1.30;;;;;;;;;;5011840;23;20465;-46
2021/07/05 05:07:01;;;;;;;2.10;1.40;;;;;;;;;;5009918;28;20030;-46
2021/07/05 05:09:28;;;;;;;1.85;1.30;;;;;;;;;;4999482;28;20513;-46
2021/07/05 05:11:54;;;;;;;2.47;1.23;;;;;;;;;;5003619;28;20054;-47
2021/07/05 05:14:21;;;;;;;1.95;1.27;;;;;;;;;;5010623;28;20106;-47
2021/07/05 05:16:49;;;;;;;1.42;1.00;;;;;;;;;;5010880;28;20124;-46
2021/07/05 05:19:15;;;;;;;2.95;1.27;;;;;;;;;;5007178;28;20499;-48
2021/07/05 05:21:42;;;;;;;5.88;1.45;;;;;;;;;;5009027;28;20067;-49
2021/07/05 05:24:09;;;;;;;1.88;1.27;;;;;;;;;;5008717;28;20058;-48
2021/07/05 05:26:35;;;;;;;2.10;1.00;;;;;;;;;;5010266;28;20042;-44
2021/07/05 05:29:02;;;;;;;2.97;1.00;;;;;;;;;;4998736;28;20057;-45
2021/07/05 05:31:31;;;;;;;2.78;1.20;;;;;;;;;;4983929;28;20095;-50
2021/07/05 05:33:59;;;;;;;3.13;1.10;;;;;;;;;;5010532;28;20066;-44
2021/07/05 05:36:26;;;;;;;2.05;1.25;;;;;;;;;;5004219;28;20589;-51
2021/07/05 05:38:53;;;;;;;2.90;1.10;;;;;;;;;;5006726;28;20046;-48
2021/07/05 05:41:19;;;;;;;1.70;1.00;;;;;;;;;;5004927;28;20046;-44
2021/07/05 05:43:46;;;;;;;2.50;1.30;;;;;;;;;;5007910;28;20048;-46
2021/07/05 05:46:15;;;;;;;1.65;1.05;;;;;;;;;;5009284;28;20073;-46
2021/07/05 05:48:43;;;;;;;3.88;1.20;;;;;;;;;;4993584;28;20187;-52
2021/07/05 05:51:10;;;;;;;2.25;1.10;;;;;;;;;;5007270;28;20504;-46
2021/07/05 05:53:37;;;;;;;2.35;1.08;;;;;;;;;;5001825;28;20041;-45
2021/07/05 05:56:04;;;;;;;3.08;1.10;;;;;;;;;;4995701;28;20074;-50
2021/07/05 05:58:35;;;;;;;1.95;1.10;;;;;;;;;;5013687;28;20046;-46
2021/07/05 06:01:02;;;;;;;1.83;0.95;;;;;;;;;;5010903;28;20049;-45
2021/07/05 06:03:29;;;;;;;1.80;1.00;;;;;;;;;;5009395;28;20044;-48
2021/07/05 06:05:55;;;;;;;3.95;1.30;;;;;;;;;;5011476;28;20048;-45
2021/07/05 06:08:22;;;;;;;4.07;1.30;;;;;;;;;;4995065;28;20073;-45
2021/07/05 06:10:49;;;;;;;3.42;1.17;;;;;;;;;;4993688;28;20123;-48
2021/07/05 06:13:15;;;;;;;2.75;1.00;;;;;;;;;;5006045;28;20066;-49
2021/07/05 06:15:42;;;;;;;2.15;0.93;;;;;;;;;;5001479;28;20046;-44
2021/07/05 06:18:09;;;;;;;2.92;1.00;;;;;;;;;;5007920;28;20142;-44
2021/07/05 06:20:36;;;;;;;1.98;0.90;;;;;;;;;;5003305;28;20467;-45
2021/07/05 06:23:08;;;;;;;1.85;1.00;;;;;;;;;;5002812;28;20034;-47
2021/07/05 06:25:35;;;;;;;3.42;1.08;;;;;;;;;;5002900;28;20149;-45
2021/07/05 06:28:02;;;;;;;4.38;1.05;;;;;;;;;;4995431;28;20054;-47
2021/07/05 06:30:29;;;;;;;5.25;1.25;;;;;;;;;;5010108;28;20069;-47
2021/07/05 06:32:56;;;;;;;2.03;1.10;;;;;;;;;;4993617;28;20045;-46
2021/07/05 06:35:22;;;;;;;2.83;1.10;;;;;;;;;;5011462;28;20128;-45
2021/07/05 06:37:49;;;;;;;1.70;1.13;;;;;;;;;;5006400;28;20054;-46
2021/07/05 06:40:17;;;;;;;1.23;0.95;;;;;;;;;;5002136;28;20038;-44
2021/07/05 06:42:44;;;;;;;2.67;1.20;;;;;;;;;;5007749;28;20070;-46
2021/07/05 06:45:11;;;;;;;2.42;1.10;;;;;;;;;;5014542;28;20486;-47
2021/07/05 06:47:38;;;;;;;2.35;1.10;;;;;;;;;;5012302;28;20471;-46
2021/07/05 06:50:05;;;;;;;2.22;0.98;;;;;;;;;;5013167;28;20503;-48
2021/07/05 06:52:33;;;;;;;2.85;1.38;;;;;;;;;;5005276;28;20081;-47
2021/07/05 06:55:01;;;;;;;1.85;1.08;;;;;;;;;;5012251;28;20042;-48
2021/07/05 06:57:31;;;;;;;2.83;0.98;;;;;;;;;;5001987;28;20579;-45
2021/07/05 06:59:59;;;;;;;1.52;0.98;;;;;;;;;;5004183;28;20074;-43
2021/07/05 07:02:26;;;;;;;1.05;0.90;;;;;;;;;;5010156;28;20134;-45
2021/07/05 07:04:53;;;;;;;2.40;0.70;;;;;;;;;;5009202;28;20052;-51
2021/07/05 07:07:20;;;;;;;2.15;1.10;;;;;;;;;;5005213;28;20056;-47
2021/07/05 07:09:47;;;;;;;1.40;0.90;;;;;;;;;;5010871;28;20068;-46
2021/07/05 07:12:14;;;;;;;1.85;1.17;;;;;;;;;;5011709;28;20034;-49
2021/07/05 07:14:41;;;;;;;3.20;1.05;;;;;;;;;;5008917;28;20487;-47
2021/07/05 07:17:23;;;;;;;3.75;0.90;;;;;;;;;;5012905;28;20056;-45
2021/07/05 07:19:50;;;;;;;4.97;1.10;;;;;;;;;;5010011;28;20034;-48
2021/07/05 07:22:19;;;;;;;2.35;1.00;;;;;;;;;;5005031;28;20470;-49
2021/07/05 07:24:46;;;;;;;1.73;1.00;;;;;;;;;;5007942;28;20030;-47
2021/07/05 07:27:13;;;;;;;1.10;0.80;;;;;;;;;;5010899;28;20065;-48
2021/07/05 07:29:40;;;;;;;1.77;0.95;;;;;;;;;;5007627;28;20118;-50
2021/07/05 07:32:07;;;;;;;2.25;0.95;;;;;;;;;;5004899;28;20034;-51
2021/07/05 07:34:34;;;;;;;1.58;1.00;;;;;;;;;;5010910;28;20034;-49
2021/07/05 07:37:04;;;;;;;1.20;0.85;;;;;;;;;;5013760;28;20595;-49
2021/07/05 07:39:38;;;;;;;1.23;0.95;;;;;;;;;;5008784;28;20053;-50
2021/07/05 07:42:04;;;;;;;1.67;1.10;;;;;;;;;;5010247;28;20368;-50
2021/07/05 07:44:33;;;;;;;1.13;0.82;;;;;;;;;;5011930;28;20124;-51
2021/07/05 07:47:01;;;;;;;1.17;0.85;;;;;;;;;;5007000;28;20069;-46
2021/07/05 07:49:30;;;;;;;1.38;0.82;;;;;;;;;;5009164;28;20118;-47
2021/07/05 07:51:57;;;;;;;3.47;1.30;;;;;;;;;;5007687;28;20046;-47
2021/07/05 07:54:24;;;;;;;2.05;1.35;;;;;;;;;;5010172;28;20046;-45
2021/07/05 07:56:51;;;;;;;2.67;1.10;;;;;;;;;;5013536;28;20045;-49
2021/07/05 07:59:18;;;;;;;1.83;1.20;;;;;;;;;;5008566;28;20073;-47
2021/07/05 08:01:45;;;;;;;1.33;0.90;;;;;;;;;;5002668;28;20092;-47
2021/07/05 08:04:13;;;;;;;3.42;1.23;;;;;;;;;;5009261;28;20100;-45
2021/07/05 08:06:40;;;;;;;3.67;1.10;;;;;;;;;;5008269;28;20044;-48
2021/07/05 08:09:07;;;;;;;3.00;1.20;;;;;;;;;;5012737;28;20041;-47
2021/07/05 08:11:35;;;;;;;1.67;1.15;;;;;;;;;;5005195;28;20047;-47
2021/07/05 08:14:05;;;;;;;1.63;0.90;;;;;;;;;;5010116;28;20038;-47
2021/07/05 08:16:32;;;;;;;1.25;1.00;;;;;;;;;;5010140;28;20089;-47
2021/07/05 08:18:59;;;;;;;1.35;1.00;;;;;;;;;;5010507;28;20042;-46
2021/07/05 08:21:26;;;;;;;1.48;0.93;;;;;;;;;;5002202;28;20468;-46
2021/07/05 08:23:53;;;;;;;2.05;1.10;;;;;;;;;;5006777;28;20044;-48
2021/07/05 08:26:20;;;;;;;1.50;1.10;;;;;;;;;;4999537;28;20050;-47
2021/07/05 08:28:47;;;;;;;3.15;1.10;;;;;;;;;;5000257;28;20042;-49
2021/07/05 08:31:14;;;;;;;1.30;0.95;;;;;;;;;;5008518;28;20052;-45
2021/07/05 08:33:41;;;;;;;2.17;1.08;;;;;;;;;;5008579;28;20046;-48
2021/07/05 08:36:08;;;;;;;1.65;0.93;;;;;;;;;;5012772;28;20046;-45
2021/07/05 08:38:35;;;;;;;1.13;1.02;;;;;;;;;;5010428;28;20050;-47
2021/07/05 08:41:03;;;;;;;1.65;1.00;;;;;;;;;;5006197;28;20041;-50
2021/07/05 08:43:30;;;;;;;0.80;0.80;;;;;;;;;;5010145;28;20123;-48
2021/07/05 08:46:01;;;;;;;1.60;1.02;;;;;;;;;;5013135;28;20412;-52
2021/07/05 08:48:31;;;;;;;2.50;0.90;;;;;;;;;;5009386;28;20042;-44
2021/07/05 08:51:01;;;;;;;1.30;1.05;;;;;;;;;;5007449;28;20565;-47
2021/07/05 08:53:28;;;;;;;2.45;1.10;;;;;;;;;;5001399;28;20041;-47
2021/07/05 08:55:56;;;;;;;2.97;1.00;;;;;;;;;;5007130;28;20460;-46
2021/07/05 08:58:23;;;;;;;3.20;1.05;;;;;;;;;;5011600;28;20422;-48
2021/07/05 09:00:49;;;;;;;2.15;1.00;;;;;;;;;;5006203;28;20129;-44
2021/07/05 09:03:21;;;;;;;1.73;1.17;;;;;;;;;;5011569;28;20042;-43
2021/07/05 09:06:08;;;;;;;1.88;1.02;;;;;;;;;;5006395;28;20062;-44
2021/07/05 09:08:38;;;;;;;1.95;1.10;;;;;;;;;;5012185;28;20038;-46
2021/07/05 09:11:09;;;;;;;1.42;0.90;;;;;;;;;;5007173;28;20040;-43
2021/07/05 09:13:54;;;;;;;2.92;1.10;;;;;;;;;;5004037;28;20471;-43
2021/07/05 09:16:28;;;;;;;1.17;1.00;;;;;;;;;;5003385;28;20046;-48
2021/07/05 09:18:55;;;;;;;2.92;1.30;;;;;;;;;;5002825;28;20073;-47
2021/07/05 09:21:26;;;;;;;1.55;0.88;;;;;;;;;;4996622;28;20050;-43
2021/07/05 09:24:02;;;;;;;1.35;1.00;;;;;;;;;;5004306;28;20115;-47
2021/07/05 09:26:40;;;;;;;2.10;1.00;;;;;;;;;;5000768;28;20120;-43
2021/07/05 09:29:07;;;;;;;1.20;0.90;;;;;;;;;;5004555;28;20494;-46
2021/07/05 09:31:34;;;;;;;0.98;0.80;;;;;;;;;;5002944;28;20045;-43
2021/07/05 09:34:02;;;;;;;0.95;0.90;;;;;;;;;;5009648;28;20042;-44
2021/07/05 09:36:30;;;;;;;1.35;0.90;;;;;;;;;;5011266;28;20069;-45
2021/07/05 09:38:57;;;;;;;1.73;1.10;;;;;;;;;;4996051;28;20465;-43
2021/07/05 09:41:32;;;;;;;2.90;1.48;;;;;;;;;;5001971;28;20121;-48
2021/07/05 09:44:01;;;;;;;1.20;0.75;;;;;;;;;;5011097;28;20038;-44
2021/07/05 09:46:47;;;;;;;1.73;1.20;;;;;;;;;;5012599;28;20121;-44
2021/07/05 09:49:14;;;;;;;0.65;0.65;;;;;;;;;;5000186;28;20518;-43
2021/07/05 09:51:42;;;;;;;2.90;0.90;;;;;;;;;;5011991;28;20442;-41
2021/07/05 09:54:09;;;;;;;4.00;1.05;;;;;;;;;;4998823;28;20043;-43
2021/07/05 09:56:36;;;;;;;2.15;1.10;;;;;;;;;;5010990;28;20132;-44
2021/07/05 09:59:17;;;;;;;1.60;0.93;;;;;;;;;;5011575;28;20056;-46
2021/07/05 10:01:46;;;;;;;2.40;0.93;;;;;;;;;;4997607;28;20084;-49
2021/07/05 10:04:17;;;;;;;1.65;0.95;;;;;;;;;;4993453;28;20133;-47
2021/07/05 10:06:45;;;;;;;2.47;0.98;;;;;;;;;;5008410;28;20048;-43
2021/07/05 10:09:13;;;;;;;3.08;1.10;;;;;;;;;;4983089;28;20526;-47
2021/07/05 10:11:40;;;;;;;2.17;1.08;;;;;;;;;;5008211;28;20081;-48
2021/07/05 10:14:09;;;;;;;1.63;0.93;;;;;;;;;;5001691;28;20159;-47
2021/07/05 10:16:35;;;;;;;1.38;0.95;;;;;;;;;;5003143;28;20072;-43
2021/07/05 10:19:02;;;;;;;1.60;1.00;;;;;;;;;;5011030;28;20068;-44
2021/07/05 10:21:29;;;;;;;2.53;0.93;;;;;;;;;;5009457;28;20072;-52
2021/07/05 10:23:56;;;;;;;2.38;1.00;;;;;;;;;;5010165;28;20060;-46
2021/07/05 10:26:23;;;;;;;0.80;0.80;;;;;;;;;;5011529;28;20104;-44
2021/07/05 10:28:50;;;;;;;1.40;1.10;;;;;;;;;;5009577;28;20049;-44
2021/07/05 10:31:17;;;;;;;2.17;1.30;;;;;;;;;;4999123;28;20445;-45
2021/07/05 10:33:44;;;;;;;3.08;1.05;;;;;;;;;;5010263;28;20074;-44
2021/07/05 10:36:11;;;;;;;3.70;1.05;;;;;;;;;;5010779;28;20045;-45
2021/07/05 10:38:52;;;;;;;1.95;1.00;;;;;;;;;;4999507;28;20492;-46
2021/07/05 10:41:21;;;;;;;2.97;0.95;;;;;;;;;;5004548;28;20428;-45
2021/07/05 10:43:52;;;;;;;1.40;0.80;;;;;;;;;;5014243;28;20062;-45
2021/07/05 10:46:38;;;;;;;4.05;1.25;;;;;;;;;;5011013;28;20436;-45
2021/07/05 10:49:06;;;;;;;1.38;0.93;;;;;;;;;;5013765;28;20068;-44
2021/07/05 10:51:43;;;;;;;1.40;1.00;;;;;;;;;;5014026;28;20076;-44
2021/07/05 10:54:11;;;;;;;2.20;1.00;;;;;;;;;;5008170;28;20132;-46
2021/07/05 10:56:44;;;;;;;1.17;1.02;;;;;;;;;;5014030;28;20041;-44
2021/07/05 10:59:11;;;;;;;1.75;1.00;;;;;;;;;;5006295;28;20108;-43
2021/07/05 11:01:41;;;;;;;4.60;0.95;;;;;;;;;;5011832;28;20041;-44
2021/07/05 11:04:18;;;;;;;1.65;1.08;;;;;;;;;;5007426;28;20049;-45
2021/07/05 11:06:45;;;;;;;2.65;1.20;;;;;;;;;;5013616;28;20034;-46
2021/07/05 11:09:21;;;;;;;2.50;1.20;;;;;;;;;;5013865;28;20566;-43
2021/07/05 11:11:52;;;;;;;2.25;1.08;;;;;;;;;;5007879;28;20543;-45
2021/07/05 11:14:21;;;;;;;2.58;1.38;;;;;;;;;;5007254;28;20042;-46
2021/07/05 11:16:53;;;;;;;2.35;1.00;;;;;;;;;;5013656;28;20046;-47
2021/07/05 11:19:35;;;;;;;1.20;0.90;;;;;;;;;;5014470;28;20480;-45
2021/07/05 11:22:06;;;;;;;3.00;0.97;;;;;;;;;;4996804;28;20043;-45
2021/07/05 11:24:34;;;;;;;1.67;0.88;;;;;;;;;;5005493;28;20046;-43
2021/07/05 11:27:19;;;;;;;1.70;0.90;;;;;;;;;;5013054;28;20045;-43
2021/07/05 11:29:46;;;;;;;1.85;1.00;;;;;;;;;;5011553;28;20046;-43
2021/07/05 11:32:32;;;;;;;1.20;0.95;;;;;;;;;;5011388;28;20046;-44
2021/07/05 11:34:58;;;;;;;1.73;1.00;;;;;;;;;;5007112;23;20065;-48
2021/07/05 11:37:25;;;;;;;2.28;1.20;;;;;;;;;;5006266;28;20052;-46
2021/07/05 11:39:53;;;;;;;1.30;0.98;;;;;;;;;;5010727;28;20030;-46
2021/07/05 11:42:22;;;;;;;2.25;1.00;;;;;;;;;;5010831;28;20142;-46
2021/07/05 11:44:53;;;;;;;2.70;0.90;;;;;;;;;;5006363;28;20042;-47
2021/07/05 11:47:35;;;;;;;3.03;1.10;;;;;;;;;;4994470;28;20076;-46
2021/07/05 11:50:14;;;;;;;1.45;0.85;;;;;;;;;;4997556;28;20041;-48
2021/07/05 11:52:45;;;;;;;2.10;0.90;;;;;;;;;;4972726;28;20093;-48
2021/07/05 11:55:13;;;;;;;1.48;0.98;;;;;;;;;;4994006;28;20046;-49
2021/07/05 11:57:46;;;;;;;1.35;1.00;;;;;;;;;;4992049;28;20525;-46
2021/07/05 12:00:14;;;;;;;1.63;1.08;;;;;;;;;;5005302;28;20050;-49
2021/07/05 12:02:40;;;;;;;1.35;0.70;;;;;;;;;;4998683;28;20499;-48
2021/07/05 12:05:09;;;;;;;1.77;0.80;;;;;;;;;;4997080;28;20577;-49
2021/07/05 12:07:36;;;;;;;2.20;1.00;;;;;;;;;;4993045;28;20042;-50
2021/07/05 12:10:07;;;;;;;0.95;0.60;;;;;;;;;;4990266;28;20069;-50
2021/07/05 12:12:35;;;;;;;0.95;0.80;;;;;;;;;;4991481;28;20073;-47
2021/07/05 12:15:04;;;;;;;1.27;0.80;;;;;;;;;;5010328;28;20517;-49
2021/07/05 12:17:31;;;;;;;1.00;0.80;;;;;;;;;;5011052;28;20050;-49
2021/07/05 12:19:58;;;;;;;1.17;0.70;;;;;;;;;;4990759;28;20498;-49
2021/07/05 12:22:28;;;;;;;1.00;0.80;;;;;;;;;;4991798;28;20035;-51
2021/07/05 12:24:56;;;;;;;1.67;0.82;;;;;;;;;;4991767;28;20042;-51
2021/07/05 12:27:27;;;;;;;1.60;0.88;;;;;;;;;;5004804;28;20038;-52
2021/07/05 12:29:56;;;;;;;2.95;0.90;;;;;;;;;;4994562;28;20039;-49
2021/07/05 12:32:26;;;;;;;3.38;1.08;;;;;;;;;;4985126;28;20042;-52
2021/07/05 12:34:55;;;;;;;0.90;0.80;;;;;;;;;;4972685;28;20082;-48
2021/07/05 12:37:22;;;;;;;1.77;1.10;;;;;;;;;;4999416;28;20046;-49
2021/07/05 12:40:00;;;;;;;1.25;1.00;;;;;;;;;;4989830;28;20038;-48
2021/07/05 12:42:38;;;;;;;2.08;0.90;;;;;;;;;;4993626;28;20038;-49
2021/07/05 12:45:25;;;;;;;1.90;0.80;;;;;;;;;;4994469;28;20038;-49
2021/07/05 12:47:53;;;;;;;2.25;0.80;;;;;;;;;;4951172;28;20643;-47
2021/07/05 12:50:23;;;;;;;1.55;0.82;;;;;;;;;;4984167;28;20038;-47
2021/07/05 12:53:06;;;;;;;2.03;0.75;;;;;;;;;;5001500;28;20206;-50
2021/07/05 12:55:35;;;;;;;3.15;1.58;;;;;;;;;;4999323;28;20132;-51
2021/07/05 12:58:02;;;;;;;3.47;1.02;;;;;;;;;;4993406;28;20041;-48
2021/07/05 13:00:30;;;;;;;1.33;0.90;;;;;;;;;;4991960;28;20046;-49
2021/07/05 13:03:07;;;;;;;1.73;0.90;;;;;;;;;;4982951;28;20133;-48
2021/07/05 13:05:34;;;;;;;2.03;1.00;;;;;;;;;;4999371;28;20034;-50
2021/07/05 13:08:01;;;;;;;0.90;0.77;;;;;;;;;;5009731;28;20107;-50
2021/07/05 13:10:33;;;;;;;1.83;0.90;;;;;;;;;;5006048;28;20042;-51
2021/07/05 13:13:04;;;;;;;3.50;0.93;;;;;;;;;;4982021;28;20052;-50
2021/07/05 13:15:40;;;;;;;0.93;0.75;;;;;;;;;;4992712;28;20053;-52
2021/07/05 13:18:13;;;;;;;4.00;1.00;;;;;;;;;;4987119;28;20450;-48
2021/07/05 13:20:41;;;;;;;4.07;0.80;;;;;;;;;;4993442;28;20134;-50
2021/07/05 13:23:08;;;;;;;1.55;0.77;;;;;;;;;;4980989;28;20053;-50
2021/07/05 13:25:35;;;;;;;3.20;1.08;;;;;;;;;;4990716;28;20076;-48
2021/07/05 13:28:13;;;;;;;1.83;1.08;;;;;;;;;;4996102;28;20081;-50
2021/07/05 13:30:41;;;;;;;3.90;1.00;;;;;;;;;;4980928;28;20049;-49
2021/07/05 13:33:08;;;;;;;1.98;0.90;;;;;;;;;;4985355;28;20058;-47
2021/07/05 13:35:39;;;;;;;1.25;0.80;;;;;;;;;;4989996;28;20054;-47
2021/07/05 13:38:14;;;;;;;3.05;1.08;;;;;;;;;;4991416;28;20058;-50
2021/07/05 13:40:45;;;;;;;2.70;1.05;;;;;;;;;;5008048;28;20056;-49
2021/07/05 13:43:14;;;;;;;2.13;0.70;;;;;;;;;;4990497;28;20156;-50
2021/07/05 13:45:42;;;;;;;1.40;0.95;;;;;;;;;;5005698;28;20121;-46
2021/07/05 13:48:11;;;;;;;5.57;1.10;;;;;;;;;;4986186;28;20045;-51
2021/07/05 13:50:40;;;;;;;1.75;1.13;;;;;;;;;;5006600;28;20100;-49
2021/07/05 13:53:20;;;;;;;1.58;1.00;;;;;;;;;;5000508;28;20646;-47
2021/07/05 13:55:49;;;;;;;2.60;1.00;;;;;;;;;;4990569;28;20492;-48
2021/07/05 13:58:17;;;;;;;1.48;0.80;;;;;;;;;;4992432;28;20042;-50
2021/07/05 14:00:54;;;;;;;2.83;0.98;;;;;;;;;;4996671;28;21177;-48
2021/07/05 14:03:22;;;;;;;1.67;1.10;;;;;;;;;;4976033;28;20415;-50
2021/07/05 14:05:53;;;;;;;3.28;1.00;;;;;;;;;;4971654;28;20125;-46
2021/07/05 14:08:20;;;;;;;1.95;0.93;;;;;;;;;;5005669;28;20125;-48
2021/07/05 14:10:48;;;;;;;1.98;1.17;;;;;;;;;;4987833;28;20046;-48
2021/07/05 14:13:15;;;;;;;2.65;1.20;;;;;;;;;;4970878;28;20412;-46
2021/07/05 14:15:43;;;;;;;1.85;0.80;;;;;;;;;;4988706;28;20384;-47
2021/07/05 14:18:10;;;;;;;2.05;1.20;;;;;;;;;;4994132;28;20511;-50
2021/07/05 14:20:37;;;;;;;1.20;1.10;;;;;;;;;;4992547;28;20070;-48
2021/07/05 14:23:05;;;;;;;1.70;1.13;;;;;;;;;;4987465;28;20428;-50
2021/07/05 14:25:33;;;;;;;2.17;0.75;;;;;;;;;;4988782;28;20734;-48
2021/07/05 14:28:00;;;;;;;0.73;0.73;;;;;;;;;;4994592;28;20046;-48
2021/07/05 14:30:27;;;;;;;1.35;0.80;;;;;;;;;;4994890;28;20042;-52
2021/07/05 14:32:54;;;;;;;3.10;1.77;;;;;;;;;;4984574;28;20125;-49
2021/07/05 14:35:20;;;;;;;3.08;0.93;;;;;;;;;;4999618;28;20049;-53
2021/07/05 14:37:47;;;;;;;2.78;1.00;;;;;;;;;;4994473;28;20046;-51
2021/07/05 14:40:14;;;;;;;1.45;0.70;;;;;;;;;;4993141;28;20057;-48
2021/07/05 14:42:41;;;;;;;1.30;0.63;;;;;;;;;;4986487;28;20451;-48
2021/07/05 14:45:10;;;;;;;1.40;0.73;;;;;;;;;;4993756;28;20069;-49
2021/07/05 14:47:36;;;;;;;0.95;0.80;;;;;;;;;;4992984;28;20046;-50
2021/07/05 14:50:04;;;;;;;2.40;0.80;;;;;;;;;;4994276;28;20044;-48